createdAt,value
2022-09-07T00:00:29.754Z,7.18
2022-09-07T00:02:59.576Z,6.25
2022-09-07T00:05:30.176Z,5.80
2022-09-07T00:08:00.912Z,5.47
2022-09-07T00:10:31.977Z,5.82
2022-09-07T00:13:01.663Z,6.55
2022-09-07T00:15:31.412Z,5.72
2022-09-07T00:18:01.540Z,6.63
2022-09-07T00:20:31.198Z,5.45
2022-09-07T00:23:00.908Z,6.28
2022-09-07T00:25:32.252Z,5.93
2022-09-07T00:28:02.004Z,6.40
2022-09-07T00:30:31.883Z,6.55
2022-09-07T00:33:01.656Z,6.47
2022-09-07T00:35:31.248Z,6.40
2022-09-07T00:38:00.850Z,6.25
2022-09-07T00:40:31.817Z,5.93
2022-09-07T00:43:01.720Z,6.05
2022-09-07T00:45:31.426Z,6.45
2022-09-07T00:48:07.457Z,6.97
2022-09-07T01:55:18.660Z,5.13
2022-09-07T01:57:56.499Z,5.22
2022-09-07T02:00:26.710Z,4.90
2022-09-07T02:03:04.066Z,5.45
2022-09-07T02:05:41.165Z,6.25
2022-09-07T02:08:15.476Z,4.78
2022-09-07T02:10:55.825Z,4.90
2022-09-07T02:13:35.432Z,4.78
2022-09-07T02:17:19.142Z,5.82
2022-09-07T02:24:38.257Z,4.00
2022-09-07T02:29:02.222Z,5.00
2022-09-07T02:31:32.385Z,4.57
2022-09-07T02:34:03.067Z,5.03
2022-09-07T02:36:41.036Z,4.68
2022-09-07T02:39:11.020Z,4.70
2022-09-07T02:41:43.983Z,4.53
2022-09-07T02:44:20.852Z,4.43
2022-09-07T02:47:15.227Z,4.90
2022-09-07T02:50:30.682Z,4.88
2022-09-07T02:53:33.726Z,4.57
2022-09-07T02:56:23.369Z,4.82
2022-09-07T02:59:07.653Z,4.60
2022-09-07T03:02:52.126Z,4.32
2022-09-07T03:14:16.567Z,4.60
2022-09-07T03:16:50.703Z,4.87
2022-09-07T03:19:20.797Z,4.60
2022-09-07T03:21:50.543Z,4.78
2022-09-07T03:24:20.702Z,5.18
2022-09-07T03:26:51.938Z,4.53
2022-09-07T03:29:21.827Z,3.85
2022-09-07T03:31:52.904Z,4.72
2022-09-07T03:34:22.727Z,4.72
2022-09-07T03:36:52.471Z,3.92
2022-09-07T03:39:23.851Z,5.07
2022-09-07T03:41:53.671Z,4.68
2022-09-07T03:44:23.639Z,5.18
2022-09-07T03:46:54.755Z,4.07
2022-09-07T03:49:24.571Z,5.28
2022-09-07T03:51:54.339Z,4.28
2022-09-07T03:54:24.138Z,4.57
2022-09-07T03:56:53.953Z,5.50
2022-09-07T03:59:23.616Z,4.10
2022-09-07T04:01:54.810Z,4.82
2022-09-07T04:04:24.558Z,3.92
2022-09-07T04:06:54.358Z,4.25
2022-09-07T04:09:24.072Z,3.92
2022-09-07T04:11:53.898Z,4.15
2022-09-07T04:14:23.942Z,4.45
2022-09-07T04:16:55.104Z,4.50
2022-09-07T04:19:25.127Z,5.25
2022-09-07T04:21:55.182Z,4.60
2022-09-07T04:24:24.890Z,4.45
2022-09-07T04:26:54.548Z,4.35
2022-09-07T04:29:24.362Z,4.32
2022-09-07T04:31:55.526Z,4.40
2022-09-07T04:34:25.452Z,4.00
2022-09-07T04:36:55.152Z,4.75
2022-09-07T04:39:25.134Z,3.78
2022-09-07T04:41:55.031Z,4.25
2022-09-07T04:44:24.724Z,4.38
2022-09-07T04:46:55.863Z,4.07
2022-09-07T04:49:25.555Z,5.05
2022-09-07T04:51:55.394Z,5.15
2022-09-07T04:54:26.494Z,4.22
2022-09-07T04:56:56.171Z,4.72
2022-09-07T04:59:25.916Z,5.55
2022-09-07T05:01:57.315Z,6.28
2022-09-07T05:04:27.087Z,5.38
2022-09-07T05:06:57.070Z,4.47
2022-09-07T05:09:26.729Z,5.13
2022-09-07T05:11:56.544Z,5.25
2022-09-07T05:14:26.945Z,4.65
2022-09-07T05:16:58.192Z,5.28
2022-09-07T05:19:28.094Z,4.68
2022-09-07T05:21:59.418Z,4.95
2022-09-07T05:24:29.311Z,5.53
2022-09-07T05:27:01.732Z,6.20
2022-09-07T05:32:22.828Z,4.63
2022-09-07T05:34:53.618Z,4.43
2022-09-07T05:37:24.083Z,4.70
2022-09-07T05:39:56.914Z,4.55
2022-09-07T05:42:26.813Z,4.32
2022-09-07T05:44:56.579Z,4.70
2022-09-07T05:47:27.906Z,4.13
2022-09-07T05:49:57.768Z,4.47
2022-09-07T05:52:27.694Z,4.78
2022-09-07T05:55:07.769Z,4.60
2022-09-07T05:57:47.370Z,4.97
2022-09-07T06:00:17.686Z,4.57
2022-09-07T06:02:49.104Z,4.60
2022-09-07T06:05:18.904Z,4.00
2022-09-07T06:07:49.224Z,5.03
2022-09-07T06:13:09.526Z,4.82
2022-09-07T06:15:39.192Z,5.20
2022-09-07T06:18:10.136Z,5.05
2022-09-07T06:20:39.769Z,4.55
2022-09-07T06:23:09.363Z,3.42
2022-09-07T06:25:38.938Z,4.03
2022-09-07T06:28:08.486Z,3.53
2022-09-07T06:30:38.057Z,3.97
2022-09-07T06:33:09.065Z,3.75
2022-09-07T06:35:38.616Z,3.60
2022-09-07T06:38:08.230Z,4.50
2022-09-07T06:40:37.794Z,3.40
2022-09-07T06:43:07.328Z,3.40
2022-09-07T06:45:36.975Z,3.42
2022-09-07T06:48:06.632Z,3.88
2022-09-07T06:50:38.306Z,3.65
2022-09-07T06:55:57.749Z,4.30
2022-09-07T06:58:28.645Z,3.17
2022-09-07T07:00:58.408Z,2.88
2022-09-07T07:03:29.642Z,3.33
2022-09-07T07:06:00.720Z,2.67
2022-09-07T07:08:30.535Z,3.10
2022-09-07T07:11:05.223Z,3.15
2022-09-07T07:13:35.809Z,2.47
2022-09-07T07:16:07.206Z,3.10
2022-09-07T07:18:37.770Z,3.42
2022-09-07T07:21:11.835Z,2.92
2022-09-07T07:23:42.508Z,2.80
2022-09-07T07:26:16.396Z,2.90
2022-09-07T07:29:03.718Z,2.90
2022-09-07T07:31:35.023Z,3.00
2022-09-07T07:34:04.691Z,3.47
2022-09-07T07:36:36.029Z,3.40
2022-09-07T07:39:06.703Z,3.30
2022-09-07T07:44:26.017Z,3.50
2022-09-07T07:46:55.656Z,2.90
2022-09-07T07:49:25.556Z,3.00
2022-09-07T07:54:46.877Z,3.00
2022-09-07T07:57:18.934Z,2.78
2022-09-07T07:59:48.460Z,2.75
2022-09-07T08:02:18.784Z,2.88
2022-09-07T08:04:48.387Z,3.10
2022-09-07T08:07:19.825Z,2.80
2022-09-07T08:09:49.986Z,2.92
2022-09-07T08:12:21.295Z,2.47
2022-09-07T08:14:51.007Z,2.50
2022-09-07T08:17:20.628Z,3.25
2022-09-07T08:19:50.962Z,2.67
2022-09-07T08:22:21.705Z,2.90
2022-09-07T08:24:51.345Z,3.33
2022-09-07T08:27:21.100Z,2.38
2022-09-07T08:29:51.540Z,2.35
2022-09-07T08:32:20.972Z,2.40
2022-09-07T08:34:50.325Z,2.72
2022-09-07T08:37:21.341Z,2.60
2022-09-07T08:39:50.743Z,2.40
2022-09-07T08:42:47.541Z,2.60
2022-09-07T08:45:27.350Z,2.33
2022-09-07T08:47:57.037Z,2.42
2022-09-07T08:50:34.689Z,2.40
2022-09-07T08:53:14.031Z,2.70
2022-09-07T08:55:52.861Z,2.67
2022-09-07T08:58:48.097Z,2.15
2022-09-07T09:01:36.700Z,2.22
2022-09-07T09:04:17.846Z,2.10
2022-09-07T09:07:06.888Z,2.30
2022-09-07T09:10:13.811Z,2.10
2022-09-07T09:13:03.432Z,2.28
2022-09-07T09:15:51.737Z,2.35
2022-09-07T09:18:48.808Z,2.15
2022-09-07T09:21:20.604Z,2.20
2022-09-07T09:23:55.021Z,2.05
2022-09-07T09:26:28.899Z,2.67
2022-09-07T09:28:58.783Z,1.48
2022-09-07T09:31:36.526Z,2.03
2022-09-07T09:34:13.705Z,1.63
2022-09-07T09:36:48.853Z,1.60
2022-09-07T09:39:36.569Z,1.50
2022-09-07T09:42:24.805Z,1.55
2022-09-07T09:45:04.153Z,1.52
2022-09-07T09:47:36.914Z,2.00
2022-09-07T09:52:28.892Z,1.42
2022-09-07T09:53:24.883Z,1.27
2022-09-07T09:55:55.154Z,1.10
2022-09-07T10:01:33.532Z,1.40
2022-09-07T10:04:32.927Z,1.35
2022-09-07T10:07:18.440Z,1.20
2022-09-07T10:09:53.632Z,1.67
2022-09-07T10:12:30.381Z,1.33
2022-09-07T10:15:03.445Z,1.52
2022-09-07T10:17:37.708Z,2.53
2022-09-07T10:20:36.481Z,1.40
2022-09-07T10:23:20.860Z,1.30
2022-09-07T10:25:51.082Z,2.13
2022-09-07T10:28:23.918Z,1.60
2022-09-07T10:31:17.824Z,1.92
2022-09-07T10:37:03.314Z,2.00
2022-09-07T10:39:37.983Z,3.03
2022-09-07T10:42:26.277Z,1.83
2022-09-07T10:45:09.184Z,2.42
2022-09-07T10:47:56.051Z,2.05
2022-09-07T10:50:33.832Z,2.20
2022-09-07T10:53:46.610Z,1.83
2022-09-07T10:56:25.544Z,1.98
2022-09-07T10:59:11.566Z,1.70
2022-09-07T11:01:55.758Z,1.77
2022-09-07T11:04:57.094Z,2.05
2022-09-07T11:07:54.520Z,2.10
2022-09-07T11:10:39.541Z,2.22
2022-09-07T11:13:15.512Z,2.40
2022-09-07T11:15:51.849Z,2.20
2022-09-07T11:18:29.170Z,2.38
2022-09-07T11:21:03.562Z,2.45
2022-09-07T11:23:41.406Z,1.83
2022-09-07T11:26:18.664Z,2.42
2022-09-07T11:31:49.784Z,1.60
2022-09-07T11:34:25.839Z,1.58
2022-09-07T11:37:04.150Z,2.03
2022-09-07T11:39:42.491Z,1.45
2022-09-07T11:45:21.155Z,2.20
2022-09-07T11:47:59.114Z,2.13
2022-09-07T11:50:34.869Z,2.00
2022-09-07T11:53:14.197Z,1.45
2022-09-07T11:55:49.545Z,1.80
2022-09-07T11:58:49.364Z,1.42
2022-09-07T12:01:35.233Z,1.90
2022-09-07T12:04:40.248Z,2.17
2022-09-07T12:07:33.514Z,1.90
2022-09-07T12:10:35.650Z,2.35
2022-09-07T12:13:41.188Z,1.80
2022-09-07T12:16:19.493Z,1.80
2022-09-07T12:19:19.840Z,1.92
2022-09-07T12:21:57.647Z,2.25
2022-09-07T12:24:45.818Z,1.77
2022-09-07T12:27:40.370Z,2.15
2022-09-07T12:31:00.414Z,1.70
2022-09-07T12:33:36.601Z,1.65
2022-09-07T12:36:47.761Z,1.50
2022-09-07T12:39:25.761Z,1.73
2022-09-07T12:42:38.941Z,1.85
2022-09-07T12:45:52.789Z,2.25
2022-09-07T12:48:50.851Z,2.63
2022-09-07T12:54:36.840Z,2.20
2022-09-07T12:57:30.145Z,1.73
2022-09-07T13:00:15.035Z,2.00
2022-09-07T13:09:35.466Z,1.92
2022-09-07T13:15:52.805Z,1.98
2022-09-07T13:18:44.377Z,1.40
2022-09-07T13:21:43.651Z,1.60
2022-09-07T13:24:47.339Z,1.50
2022-09-07T13:27:43.727Z,2.83
2022-09-07T13:30:37.327Z,2.13
2022-09-07T13:33:55.316Z,1.40
2022-09-07T13:36:40.214Z,2.05
2022-09-07T13:39:16.777Z,1.58
2022-09-07T13:41:54.261Z,1.23
2022-09-07T13:44:28.528Z,1.70
2022-09-07T13:47:20.181Z,1.70
2022-09-07T13:50:16.678Z,1.60
2022-09-07T13:53:51.837Z,1.90
2022-09-07T13:56:37.687Z,2.00
2022-09-07T13:59:27.749Z,1.77
2022-09-07T14:01:58.880Z,1.27
2022-09-07T14:04:35.367Z,1.92
2022-09-07T14:07:07.821Z,1.73
2022-09-07T14:09:37.240Z,2.25
2022-09-07T14:12:16.881Z,1.70
2022-09-07T14:14:46.747Z,1.60
2022-09-07T14:17:20.222Z,1.58
2022-09-07T14:19:51.497Z,2.13
2022-09-07T14:22:28.262Z,1.98
2022-09-07T14:25:01.292Z,1.83
2022-09-07T14:27:36.867Z,1.60
2022-09-07T14:30:28.094Z,1.70
2022-09-07T14:33:03.020Z,1.63
2022-09-07T14:35:36.244Z,1.80
2022-09-07T14:39:04.013Z,1.65
2022-09-07T14:41:14.672Z,1.75
2022-09-07T14:43:56.141Z,1.67
2022-09-07T14:46:28.909Z,1.63
2022-09-07T14:49:01.660Z,1.95
2022-09-07T14:51:37.189Z,1.67
2022-09-07T14:54:10.080Z,1.92
2022-09-07T14:56:42.656Z,1.50
2022-09-07T14:59:34.209Z,1.70
2022-09-07T15:02:37.732Z,1.85
2022-09-07T15:05:29.227Z,1.83
2022-09-07T15:08:01.455Z,1.70
2022-09-07T15:10:41.234Z,1.65
2022-09-07T15:13:34.155Z,1.48
2022-09-07T15:16:06.481Z,1.83
2022-09-07T15:18:57.129Z,1.95
2022-09-07T15:21:30.442Z,1.98
2022-09-07T15:24:02.429Z,1.65
2022-09-07T15:29:32.378Z,1.40
2022-09-07T15:32:04.691Z,1.63
2022-09-07T15:34:34.783Z,2.03
2022-09-07T15:38:01.241Z,1.63
2022-09-07T15:39:54.835Z,2.03
2022-09-07T15:45:16.392Z,1.52
2022-09-07T15:47:52.218Z,1.50
2022-09-07T15:50:47.280Z,1.60
2022-09-07T15:56:07.549Z,1.35
2022-09-07T15:58:38.286Z,1.92
2022-09-07T16:03:59.611Z,2.35
2022-09-07T16:06:29.521Z,1.77
2022-09-07T16:08:58.905Z,2.28
2022-09-07T16:11:29.721Z,2.15
2022-09-07T16:14:03.759Z,2.10
2022-09-07T16:19:23.503Z,1.58
2022-09-07T16:21:57.178Z,1.98
2022-09-07T16:24:28.230Z,1.88
2022-09-07T16:26:57.655Z,1.92
2022-09-07T16:29:28.551Z,1.90
2022-09-07T16:34:47.292Z,2.08
2022-09-07T16:37:16.851Z,2.05
2022-09-07T16:39:46.241Z,2.03
2022-09-07T16:42:15.755Z,2.20
2022-09-07T16:44:46.617Z,2.05
2022-09-07T16:47:16.048Z,2.15
2022-09-07T16:49:45.465Z,1.83
2022-09-07T16:52:14.878Z,2.05
2022-09-07T16:54:44.287Z,1.80
2022-09-07T16:57:15.607Z,1.90
2022-09-07T16:59:46.375Z,2.63
2022-09-07T17:02:18.337Z,2.17
2022-09-07T17:04:48.076Z,2.00
2022-09-07T17:07:17.513Z,2.20
2022-09-07T17:09:47.053Z,1.92
2022-09-07T17:12:16.419Z,2.20
2022-09-07T17:14:47.242Z,2.75
2022-09-07T17:17:17.178Z,2.28
2022-09-07T17:19:46.941Z,2.40
2022-09-07T17:22:16.511Z,3.38
2022-09-07T17:24:46.448Z,2.45
2022-09-07T17:27:16.168Z,2.00
2022-09-07T17:29:46.894Z,2.10
2022-09-07T17:32:31.739Z,2.40
2022-09-07T17:35:01.274Z,2.42
2022-09-07T17:37:30.868Z,1.88
2022-09-07T17:40:00.406Z,2.00
2022-09-07T17:45:21.214Z,2.60
2022-09-07T17:47:50.555Z,2.92
2022-09-07T17:50:19.942Z,2.88
2022-09-07T17:52:52.681Z,2.70
2022-09-07T17:55:22.694Z,2.70
2022-09-07T17:57:52.052Z,2.40
2022-09-07T18:00:22.933Z,2.55
2022-09-07T18:02:52.372Z,2.60
2022-09-07T18:05:21.781Z,3.10
2022-09-07T18:07:51.118Z,2.75
2022-09-07T18:10:20.528Z,2.97
2022-09-07T18:12:49.969Z,2.25
2022-09-07T18:15:22.050Z,2.95
2022-09-07T18:17:53.146Z,3.08
2022-09-07T18:20:24.146Z,2.67
2022-09-07T18:22:54.039Z,2.70
2022-09-07T18:25:24.514Z,2.60
2022-09-07T18:30:43.657Z,2.83
2022-09-07T18:33:14.743Z,2.55
2022-09-07T18:35:46.903Z,2.70
2022-09-07T18:38:16.323Z,2.25
2022-09-07T18:40:47.967Z,2.83
2022-09-07T18:43:17.422Z,2.83
2022-09-07T18:45:46.891Z,3.47
2022-09-07T18:48:18.077Z,3.08
2022-09-07T18:50:54.949Z,2.58
2022-09-07T18:53:24.326Z,3.92
2022-09-07T18:55:53.745Z,3.20
2022-09-07T18:58:24.415Z,3.10
2022-09-07T19:00:58.195Z,3.40
2022-09-07T19:03:29.215Z,3.47
2022-09-07T19:06:00.133Z,3.67
2022-09-07T19:08:32.833Z,3.70
2022-09-07T19:13:38.561Z,3.38
2022-09-07T19:16:13.240Z,3.08
2022-09-07T19:18:49.579Z,3.97
2022-09-07T19:21:23.470Z,3.20
2022-09-07T19:23:57.271Z,3.78
2022-09-07T19:26:29.476Z,4.80
2022-09-07T19:29:01.891Z,5.05
2022-09-07T19:31:32.469Z,5.03
2022-09-07T19:34:04.509Z,3.97
2022-09-07T19:36:35.068Z,4.15
2022-09-07T19:39:05.517Z,4.20
2022-09-07T19:41:35.304Z,4.10
2022-09-07T19:44:04.728Z,4.63
2022-09-07T19:46:34.231Z,3.75
2022-09-07T19:49:05.636Z,3.55
2022-09-07T19:51:36.851Z,3.85
2022-09-07T19:54:07.399Z,4.38
2022-09-07T19:56:39.619Z,4.68
2022-09-07T19:59:09.107Z,3.40
2022-09-07T20:01:40.478Z,4.30
2022-09-07T20:04:19.001Z,4.70
2022-09-07T20:06:50.509Z,5.03
2022-09-07T20:09:21.322Z,4.80
2022-09-07T20:11:50.875Z,4.63
2022-09-07T20:14:20.628Z,3.72
2022-09-07T20:16:50.197Z,3.75
2022-09-07T20:19:20.921Z,4.18
2022-09-07T20:21:55.535Z,3.95
2022-09-07T20:24:25.170Z,4.00
2022-09-07T20:26:54.647Z,4.13
2022-09-07T20:29:27.718Z,4.40
2022-09-07T20:31:59.783Z,4.35
2022-09-07T20:34:32.059Z,5.57
2022-09-07T20:37:02.065Z,3.97
2022-09-07T20:39:34.652Z,4.03
2022-09-07T20:42:08.819Z,3.50
2022-09-07T20:44:38.191Z,5.00
2022-09-07T20:47:07.732Z,4.38
2022-09-07T20:49:39.574Z,4.30
2022-09-07T20:52:08.931Z,4.70
2022-09-07T20:54:38.780Z,4.10
2022-09-07T20:57:08.189Z,3.88
2022-09-07T20:59:37.533Z,3.83
2022-09-07T21:02:07.111Z,4.68
2022-09-07T21:04:38.009Z,4.78
2022-09-07T21:07:07.377Z,4.30
2022-09-07T21:09:36.844Z,4.53
2022-09-07T21:12:06.557Z,5.35
2022-09-07T21:14:35.933Z,4.88
2022-09-07T21:17:05.606Z,4.35
2022-09-07T21:19:36.802Z,4.53
2022-09-07T21:22:07.545Z,4.40
2022-09-07T21:24:37.041Z,4.55
2022-09-07T21:27:07.634Z,4.88
2022-09-07T21:29:37.077Z,4.40
2022-09-07T21:32:06.829Z,4.95
2022-09-07T21:34:36.328Z,4.75
2022-09-07T21:37:07.118Z,5.03
2022-09-07T21:39:36.618Z,4.80
2022-09-07T21:42:06.273Z,4.63
2022-09-07T21:44:35.721Z,4.57
2022-09-07T21:47:05.397Z,4.57
2022-09-07T21:49:34.942Z,4.95
2022-09-07T21:52:04.707Z,4.93
2022-09-07T21:54:35.407Z,5.07
2022-09-07T21:57:05.389Z,4.75
2022-09-07T21:59:35.220Z,5.00
2022-09-07T22:02:05.488Z,5.85
2022-09-07T22:04:34.910Z,5.15
2022-09-07T22:07:04.285Z,5.50
2022-09-07T22:09:35.343Z,4.90
2022-09-07T22:12:05.397Z,4.45
2022-09-07T22:14:35.000Z,4.75
2022-09-07T22:17:04.405Z,3.47
2022-09-07T22:19:33.756Z,3.63
2022-09-07T22:22:03.163Z,3.17
2022-09-07T22:24:36.657Z,2.90
2022-09-07T22:27:07.363Z,2.88
2022-09-07T22:29:36.745Z,2.90
2022-09-07T22:32:06.301Z,2.33
2022-09-07T22:34:35.658Z,2.20
2022-09-07T22:37:05.116Z,2.90
2022-09-07T22:39:35.914Z,2.85
2022-09-07T22:42:05.933Z,2.75
2022-09-07T22:44:35.292Z,2.55
2022-09-07T22:47:04.994Z,2.15
2022-09-07T22:49:34.316Z,2.42
2022-09-07T22:52:04.340Z,2.22
2022-09-07T22:54:35.116Z,2.70
2022-09-07T22:57:05.239Z,1.92
2022-09-07T22:59:34.944Z,2.58
2022-09-07T23:02:05.084Z,2.03
2022-09-07T23:04:34.650Z,2.15
2022-09-07T23:07:06.539Z,1.80
2022-09-07T23:09:37.274Z,2.08
2022-09-07T23:12:07.272Z,1.77
2022-09-07T23:14:37.055Z,1.63
2022-09-07T23:17:06.543Z,1.65
2022-09-07T23:19:36.459Z,1.90
2022-09-07T23:22:07.747Z,2.28
2022-09-07T23:24:41.144Z,2.30
2022-09-07T23:27:10.485Z,2.63
2022-09-07T23:29:39.899Z,2.40
2022-09-07T23:32:09.300Z,2.92
2022-09-07T23:34:38.663Z,2.95
2022-09-07T23:37:08.124Z,3.90
2022-09-07T23:39:40.244Z,3.95
2022-09-07T23:42:09.765Z,3.70
2022-09-07T23:44:39.127Z,3.78
2022-09-07T23:47:08.688Z,3.30
2022-09-07T23:49:38.282Z,3.15
2022-09-07T23:52:07.813Z,3.50
2022-09-07T23:54:38.947Z,3.28
2022-09-07T23:57:08.326Z,2.95
2022-09-07T23:59:37.646Z,3.17
